Westwood, Michigan
Current Conditions -  °F | °C
As of 1:53 AM on Friday 28 Nov 2014 (Local Time) from KAZO Reporting Station
Overcast Overcast  
Wind Chill: 21°   Ceiling: 3900
Heat Index: 21°   Visibility: 10mi
Dew Point: 16°   Wind: 0mph
Humidity: 81%   Direction: NA
Pressure: 30.33"   Gusts: NA
Location:  42.3033°N, 85.7028°W
Report Text: KAZO 280653Z AUTO 00000KT 10SM OVC039 M06/M09 A3033 RMK AO2 SLP283 T10611089
Loading
Personal Weather Stations






























Interactive Weather Map New forecast layout! Learn more

10-Day Weather Forecast

Advertisements
Track Severe Weather on mobile